PWSweather.com
Personal Weather Stations
Station Observations
BAYPARK
Bay Park, Ny, East Rockaway, NY 11518

Bay Park, NyEast Rockaway, NY 11518

Lat: 40.6310098, Lon: -73.6727287

Elevation: 11

Station Type: AcuRite Pro

https://www.awekas.at/en/instrument.php?id=14894

High Low Average
Temperature 74.2°F23.4°C 61.2°F16.2°C 66.4°F19.1°C
Dew Point 58.1°F14.5°C 48.3°F9.1°C 53.7°F12.1°C
Winds 2.7 mph 4.3 kmh Calm Calm 1.0 mph SSE1.6 kmh SSE
Wind Gusts 5.8 mph9.3 kmh -- 3.0 mph4.8 kmh
Humidity 72% 56% 64%
Pressure 30.38 in1028.8 mb 30.27 in1025.1 mb -
Precipitation 0.00 in0.0 mm - -
Hour Temp Dew Point Humidity Winds Wind Gusts Pressure Precip Precip Rate Daily Precip Total
12:00 AM 64.6°F18.1°C 52.6°F11.4°C 65% 0.4 mph ESE0.6 kmh ESE 2.7 mph4.3 kmh 30.32 in1026.8 mb 0.00 in0.0 mm 0.00 in0.0 mm 0.00 in0.0 mm
12:05 AM 64.8°F18.2°C 52.8°F11.6°C 65% 0.2 mph SW0.3 kmh SW 1.1 mph1.8 kmh 30.33 in1027.1 mb 0.00 in0.0 mm 0.00 in0.0 mm 0.00 in0.0 mm
12:10 AM 64.8°F18.2°C 52.7°F11.5°C 65% 0.1 mph SSW0.2 kmh SSW 1.1 mph1.8 kmh 30.33 in1027.1 mb 0.00 in0.0 mm 0.00 in0.0 mm 0.00 in0.0 mm
12:15 AM 64.6°F18.1°C 52.6°F11.4°C 65% 0.3 mph S0.5 kmh S 2.2 mph3.5 kmh 30.33 in1027.1 mb 0.00 in0.0 mm 0.00 in0.0 mm 0.00 in0.0 mm
12:20 AM 64.7°F18.2°C 52.7°F11.5°C 65% 0.3 mph ESE0.5 kmh ESE 1.7 mph2.7 kmh 30.33 in1027.1 mb 0.00 in0.0 mm 0.00 in0.0 mm 0.00 in0.0 mm
12:25 AM 64.8°F18.2°C 52.5°F11.4°C 64% 0.2 mph W0.3 kmh W 1.7 mph2.7 kmh 30.33 in1027.1 mb 0.00 in0.0 mm 0.00 in0.0 mm 0.00 in0.0 mm
12:30 AM 64.8°F18.2°C 52.6°F11.4°C 65% 0.1 mph SE0.2 kmh SE 1.1 mph1.8 kmh 30.33 in1027.1 mb 0.00 in0.0 mm 0.00 in0.0 mm 0.00 in0.0 mm
12:35 AM 64.6°F18.1°C 52.6°F11.4°C 65% 0.5 mph E0.8 kmh E 2.2 mph3.5 kmh 30.33 in1027.1 mb 0.00 in0.0 mm 0.00 in0.0 mm 0.00 in0.0 mm
12:40 AM 64.6°F18.1°C 52.8°F11.6°C 66% 0.1 mph N0.2 kmh N 1.1 mph1.8 kmh 30.34 in1027.4 mb 0.00 in0.0 mm 0.00 in0.0 mm 0.00 in0.0 mm
12:45 AM 64.6°F18.1°C 53.0°F11.7°C 66% 0.3 mph SE0.5 kmh SE 3.2 mph5.1 kmh 30.34 in1027.4 mb 0.00 in0.0 mm 0.00 in0.0 mm 0.00 in0.0 mm
12:50 AM 64.6°F18.1°C 53.0°F11.7°C 66% 1.0 mph SE1.6 kmh SE 2.7 mph4.3 kmh 30.34 in1027.4 mb 0.00 in0.0 mm 0.00 in0.0 mm 0.00 in0.0 mm
12:55 AM 64.8°F18.2°C 53.1°F11.7°C 66% 0.1 mph SW0.2 kmh SW 1.1 mph1.8 kmh 30.34 in1027.4 mb 0.00 in0.0 mm 0.00 in0.0 mm 0.00 in0.0 mm
01:00 AM 64.9°F18.3°C 53.2°F11.8°C 66% 0.6 mph E1.0 kmh E 2.2 mph3.5 kmh 30.34 in1027.4 mb 0.00 in0.0 mm 0.00 in0.0 mm 0.00 in0.0 mm
01:05 AM 64.9°F18.3°C 53.3°F11.8°C 66% 0.6 mph SE1.0 kmh SE 1.7 mph2.7 kmh 30.33 in1027.1 mb 0.00 in0.0 mm 0.00 in0.0 mm 0.00 in0.0 mm
01:10 AM 65.2°F18.4°C 53.6°F12.0°C 66% 0.6 mph NE1.0 kmh NE 1.7 mph2.7 kmh 30.33 in1027.1 mb 0.00 in0.0 mm 0.00 in0.0 mm 0.00 in0.0 mm
01:15 AM 65.3°F18.5°C 53.4°F11.9°C 66% 0.2 mph S0.3 kmh S 1.7 mph2.7 kmh 30.33 in1027.1 mb 0.00 in0.0 mm 0.00 in0.0 mm 0.00 in0.0 mm
01:20 AM 65.3°F18.5°C 53.2°F11.8°C 65% 0.7 mph NE1.1 kmh NE 2.7 mph4.3 kmh 30.34 in1027.4 mb 0.00 in0.0 mm 0.00 in0.0 mm 0.00 in0.0 mm
01:25 AM 65.3°F18.5°C 53.0°F11.7°C 65% 1.0 mph SE1.6 kmh SE 2.2 mph3.5 kmh 30.34 in1027.4 mb 0.00 in0.0 mm 0.00 in0.0 mm 0.00 in0.0 mm
01:30 AM 65.3°F18.5°C 52.8°F11.6°C 64% 0.8 mph ESE1.3 kmh ESE 3.7 mph6.0 kmh 30.33 in1027.1 mb 0.00 in0.0 mm 0.00 in0.0 mm 0.00 in0.0 mm
01:35 AM 65.2°F18.4°C 52.2°F11.2°C 63% 0.8 mph ENE1.3 kmh ENE 2.2 mph3.5 kmh 30.33 in1027.1 mb 0.00 in0.0 mm 0.00 in0.0 mm 0.00 in0.0 mm
01:40 AM 65.1°F18.4°C 52.2°F11.2°C 63% 1.3 mph E2.1 kmh E 3.7 mph6.0 kmh 30.33 in1027.1 mb 0.00 in0.0 mm 0.00 in0.0 mm 0.00 in0.0 mm
01:45 AM 64.9°F18.3°C 51.6°F10.9°C 62% 0.8 mph E1.3 kmh E 3.7 mph6.0 kmh 30.33 in1027.1 mb 0.00 in0.0 mm 0.00 in0.0 mm 0.00 in0.0 mm
01:50 AM 64.9°F18.3°C 51.4°F10.8°C 62% 0.8 mph SSW1.3 kmh SSW 2.2 mph3.5 kmh 30.33 in1027.1 mb 0.00 in0.0 mm 0.00 in0.0 mm 0.00 in0.0 mm
01:55 AM 64.7°F18.2°C 51.0°F10.6°C 61% 0.4 mph ESE0.6 kmh ESE 2.2 mph3.5 kmh 30.33 in1027.1 mb 0.00 in0.0 mm 0.00 in0.0 mm 0.00 in0.0 mm
02:00 AM 64.6°F18.1°C 50.8°F10.4°C 61% 0.9 mph SE1.4 kmh SE 2.7 mph4.3 kmh 30.33 in1027.1 mb 0.00 in0.0 mm 0.00 in0.0 mm 0.00 in0.0 mm
02:05 AM 64.6°F18.1°C 50.4°F10.2°C 60% 0.9 mph E1.4 kmh E 1.7 mph2.7 kmh 30.33 in1027.1 mb 0.00 in0.0 mm 0.00 in0.0 mm 0.00 in0.0 mm
02:10 AM 64.5°F18.1°C 50.3°F10.2°C 60% 0.7 mph SE1.1 kmh SE 2.2 mph3.5 kmh 30.33 in1027.1 mb 0.00 in0.0 mm 0.00 in0.0 mm 0.00 in0.0 mm
02:15 AM 64.4°F18.0°C 50.2°F10.1°C 60% 0.9 mph E1.4 kmh E 2.7 mph4.3 kmh 30.32 in1026.8 mb 0.00 in0.0 mm 0.00 in0.0 mm 0.00 in0.0 mm
02:20 AM 64.4°F18.0°C 50.2°F10.1°C 60% 0.8 mph SE1.3 kmh SE 2.7 mph4.3 kmh 30.32 in1026.8 mb 0.00 in0.0 mm 0.00 in0.0 mm 0.00 in0.0 mm
02:25 AM 64.2°F17.9°C 50.5°F10.3°C 61% 0.4 mph SW0.6 kmh SW 3.2 mph5.1 kmh 30.32 in1026.8 mb 0.00 in0.0 mm 0.00 in0.0 mm 0.00 in0.0 mm
02:30 AM 64.2°F17.9°C 50.8°F10.4°C 62% 1.1 mph SE1.8 kmh SE 2.7 mph4.3 kmh 30.32 in1026.8 mb 0.00 in0.0 mm 0.00 in0.0 mm 0.00 in0.0 mm
02:35 AM 64.0°F17.8°C 50.7°F10.4°C 62% 0.9 mph E1.4 kmh E 3.2 mph5.1 kmh 30.32 in1026.8 mb 0.00 in0.0 mm 0.00 in0.0 mm 0.00 in0.0 mm
02:40 AM 64.0°F17.8°C 50.9°F10.5°C 62% 0.5 mph SE0.8 kmh SE 1.7 mph2.7 kmh 30.33 in1027.1 mb 0.00 in0.0 mm 0.00 in0.0 mm 0.00 in0.0 mm
02:45 AM 63.9°F17.7°C 51.5°F10.8°C 64% 0.1 mph SW0.2 kmh SW 1.1 mph1.8 kmh 30.33 in1027.1 mb 0.00 in0.0 mm 0.00 in0.0 mm 0.00 in0.0 mm
02:50 AM 63.9°F17.7°C 51.5°F10.8°C 64% 0.4 mph SSE0.6 kmh SSE 2.7 mph4.3 kmh 30.33 in1027.1 mb 0.00 in0.0 mm 0.00 in0.0 mm 0.00 in0.0 mm
02:55 AM 63.9°F17.7°C 51.7°F10.9°C 65% 0.5 mph E0.8 kmh E 1.7 mph2.7 kmh 30.33 in1027.1 mb 0.00 in0.0 mm 0.00 in0.0 mm 0.00 in0.0 mm
03:00 AM 63.7°F17.6°C 52.1°F11.2°C 66% 0.5 mph ENE0.8 kmh ENE 2.7 mph4.3 kmh 30.33 in1027.1 mb 0.00 in0.0 mm 0.00 in0.0 mm 0.00 in0.0 mm
03:05 AM 63.7°F17.6°C 52.5°F11.4°C 67% 0.8 mph S1.3 kmh S 3.7 mph6.0 kmh 30.32 in1026.8 mb 0.00 in0.0 mm 0.00 in0.0 mm 0.00 in0.0 mm
03:10 AM 63.7°F17.6°C 52.7°F11.5°C 67% 0.6 mph E1.0 kmh E 2.2 mph3.5 kmh 30.32 in1026.8 mb 0.00 in0.0 mm 0.00 in0.0 mm 0.00 in0.0 mm
03:15 AM 63.5°F17.5°C 52.8°F11.6°C 68% 0.8 mph SE1.3 kmh SE 2.7 mph4.3 kmh 30.32 in1026.8 mb 0.00 in0.0 mm 0.00 in0.0 mm 0.00 in0.0 mm
03:20 AM 63.5°F17.5°C 53.2°F11.8°C 69% 0.9 mph NNE1.4 kmh NNE 2.7 mph4.3 kmh 30.32 in1026.8 mb 0.00 in0.0 mm 0.00 in0.0 mm 0.00 in0.0 mm
03:25 AM 63.5°F17.5°C 53.5°F11.9°C 70% 1.0 mph W1.6 kmh W 2.2 mph3.5 kmh 30.32 in1026.8 mb 0.00 in0.0 mm 0.00 in0.0 mm 0.00 in0.0 mm
03:30 AM 63.5°F17.5°C 53.6°F12.0°C 70% 0.6 mph SSE1.0 kmh SSE 2.2 mph3.5 kmh 30.33 in1027.1 mb 0.00 in0.0 mm 0.00 in0.0 mm 0.00 in0.0 mm
03:35 AM 63.5°F17.5°C 54.1°F12.3°C 71% 0.9 mph SE1.4 kmh SE 2.2 mph3.5 kmh 30.33 in1027.1 mb 0.00 in0.0 mm 0.00 in0.0 mm 0.00 in0.0 mm
03:40 AM 63.5°F17.5°C 54.3°F12.4°C 72% 1.0 mph SE1.6 kmh SE 2.7 mph4.3 kmh 30.33 in1027.1 mb 0.00 in0.0 mm 0.00 in0.0 mm 0.00 in0.0 mm
03:45 AM 63.5°F17.5°C 54.3°F12.4°C 72% 1.3 mph S2.1 kmh S 2.7 mph4.3 kmh 30.33 in1027.1 mb 0.00 in0.0 mm 0.00 in0.0 mm 0.00 in0.0 mm
03:50 AM 63.5°F17.5°C 54.3°F12.4°C 72% 1.3 mph S2.1 kmh S 2.7 mph4.3 kmh 30.33 in1027.1 mb 0.00 in0.0 mm 0.00 in0.0 mm 0.00 in0.0 mm
03:55 AM 63.5°F17.5°C 54.3°F12.4°C 72% 0.9 mph E1.4 kmh E 2.7 mph4.3 kmh 30.33 in1027.1 mb 0.00 in0.0 mm 0.00 in0.0 mm 0.00 in0.0 mm
04:00 AM 63.5°F17.5°C 54.3°F12.4°C 72% 0.4 mph SE0.6 kmh SE 1.7 mph2.7 kmh 30.33 in1027.1 mb 0.00 in0.0 mm 0.00 in0.0 mm 0.00 in0.0 mm
04:05 AM 63.5°F17.5°C 54.3°F12.4°C 72% 0.9 mph ESE1.4 kmh ESE 2.7 mph4.3 kmh 30.33 in1027.1 mb 0.00 in0.0 mm 0.00 in0.0 mm 0.00 in0.0 mm
04:10 AM 63.5°F17.5°C 54.3°F12.4°C 72% 1.4 mph ESE2.3 kmh ESE 3.2 mph5.1 kmh 30.33 in1027.1 mb 0.00 in0.0 mm 0.00 in0.0 mm 0.00 in0.0 mm
04:15 AM 63.5°F17.5°C 54.3°F12.4°C 72% 1.0 mph ESE1.6 kmh ESE 3.2 mph5.1 kmh 30.33 in1027.1 mb 0.00 in0.0 mm 0.00 in0.0 mm 0.00 in0.0 mm
04:20 AM 63.5°F17.5°C 54.3°F12.4°C 72% 1.3 mph ESE2.1 kmh ESE 3.7 mph6.0 kmh 30.33 in1027.1 mb 0.00 in0.0 mm 0.00 in0.0 mm 0.00 in0.0 mm
04:25 AM 63.5°F17.5°C 54.3°F12.4°C 72% 1.3 mph E2.1 kmh E 3.2 mph5.1 kmh 30.34 in1027.4 mb 0.00 in0.0 mm 0.00 in0.0 mm 0.00 in0.0 mm
04:30 AM 63.5°F17.5°C 54.0°F12.2°C 71% 2.1 mph WSW3.4 kmh WSW 4.2 mph6.8 kmh 30.34 in1027.4 mb 0.00 in0.0 mm 0.00 in0.0 mm 0.00 in0.0 mm
04:35 AM 63.5°F17.5°C 53.9°F12.2°C 71% 0.6 mph SSE1.0 kmh SSE 2.2 mph3.5 kmh 30.34 in1027.4 mb 0.00 in0.0 mm 0.00 in0.0 mm 0.00 in0.0 mm
04:40 AM 63.3°F17.4°C 53.2°F11.8°C 70% 1.6 mph SE2.6 kmh SE 3.7 mph6.0 kmh 30.34 in1027.4 mb 0.00 in0.0 mm 0.00 in0.0 mm 0.00 in0.0 mm
04:45 AM 63.3°F17.4°C 52.7°F11.5°C 68% 1.5 mph ESE2.4 kmh ESE 2.7 mph4.3 kmh 30.34 in1027.4 mb 0.00 in0.0 mm 0.00 in0.0 mm 0.00 in0.0 mm
04:50 AM 63.1°F17.3°C 52.0°F11.1°C 67% 1.6 mph S2.6 kmh S 2.7 mph4.3 kmh 30.34 in1027.4 mb 0.00 in0.0 mm 0.00 in0.0 mm 0.00 in0.0 mm
04:55 AM 63.1°F17.3°C 52.0°F11.1°C 67% 0.8 mph SE1.3 kmh SE 3.7 mph6.0 kmh 30.34 in1027.4 mb 0.00 in0.0 mm 0.00 in0.0 mm 0.00 in0.0 mm
05:00 AM 63.1°F17.3°C 52.3°F11.3°C 68% 0.2 mph NNE0.3 kmh NNE 2.2 mph3.5 kmh 30.34 in1027.4 mb 0.00 in0.0 mm 0.00 in0.0 mm 0.00 in0.0 mm
05:05 AM 63.0°F17.2°C 52.2°F11.2°C 68% 0.4 mph W0.6 kmh W 2.7 mph4.3 kmh 30.35 in1027.8 mb 0.00 in0.0 mm 0.00 in0.0 mm 0.00 in0.0 mm
05:10 AM 62.8°F17.1°C 52.0°F11.1°C 68% 0.8 mph ENE1.3 kmh ENE 2.7 mph4.3 kmh 30.35 in1027.8 mb 0.00 in0.0 mm 0.00 in0.0 mm 0.00 in0.0 mm
05:15 AM 62.5°F16.9°C 51.6°F10.9°C 68% 1.0 mph SE1.6 kmh SE 3.2 mph5.1 kmh 30.34 in1027.4 mb 0.00 in0.0 mm 0.00 in0.0 mm 0.00 in0.0 mm
05:20 AM 62.2°F16.8°C 50.8°F10.4°C 66% 1.2 mph ESE1.9 kmh ESE 2.7 mph4.3 kmh 30.34 in1027.4 mb 0.00 in0.0 mm 0.00 in0.0 mm 0.00 in0.0 mm
05:25 AM 62.1°F16.7°C 50.4°F10.2°C 66% 1.9 mph N3.1 kmh N 4.7 mph7.6 kmh 30.35 in1027.8 mb 0.00 in0.0 mm 0.00 in0.0 mm 0.00 in0.0 mm
05:30 AM 62.1°F16.7°C 50.2°F10.1°C 65% 0.5 mph NE0.8 kmh NE 2.2 mph3.5 kmh 30.35 in1027.8 mb 0.00 in0.0 mm 0.00 in0.0 mm 0.00 in0.0 mm
05:35 AM 61.9°F16.6°C 49.8°F9.9°C 65% 1.6 mph S2.6 kmh S 3.7 mph6.0 kmh 30.35 in1027.8 mb 0.00 in0.0 mm 0.00 in0.0 mm 0.00 in0.0 mm
05:40 AM 61.9°F16.6°C 49.6°F9.8°C 64% 1.4 mph ENE2.3 kmh ENE 3.2 mph5.1 kmh 30.35 in1027.8 mb 0.00 in0.0 mm 0.00 in0.0 mm 0.00 in0.0 mm
05:45 AM 61.8°F16.6°C 49.5°F9.7°C 64% 1.1 mph SE1.8 kmh SE 3.2 mph5.1 kmh 30.35 in1027.8 mb 0.00 in0.0 mm 0.00 in0.0 mm 0.00 in0.0 mm
05:50 AM 61.7°F16.5°C 49.4°F9.7°C 64% 1.0 mph SSE1.6 kmh SSE 4.2 mph6.8 kmh 30.36 in1028.1 mb 0.00 in0.0 mm 0.00 in0.0 mm 0.00 in0.0 mm
05:55 AM 61.5°F16.4°C 49.2°F9.6°C 64% 1.5 mph SE2.4 kmh SE 3.7 mph6.0 kmh 30.36 in1028.1 mb 0.00 in0.0 mm 0.00 in0.0 mm 0.00 in0.0 mm
06:00 AM 61.4°F16.3°C 48.7°F9.3°C 63% 1.1 mph E1.8 kmh E 2.7 mph4.3 kmh 30.36 in1028.1 mb 0.00 in0.0 mm 0.00 in0.0 mm 0.00 in0.0 mm
06:05 AM 61.3°F16.3°C 48.6°F9.2°C 63% 1.0 mph ESE1.6 kmh ESE 3.7 mph6.0 kmh 30.36 in1028.1 mb 0.00 in0.0 mm 0.00 in0.0 mm 0.00 in0.0 mm
06:10 AM 61.3°F16.3°C 48.6°F9.2°C 63% 0.2 mph SE0.3 kmh SE 1.7 mph2.7 kmh 30.36 in1028.1 mb 0.00 in0.0 mm 0.00 in0.0 mm 0.00 in0.0 mm
06:15 AM 61.2°F16.2°C 48.5°F9.2°C 63% 1.4 mph NE2.3 kmh NE 3.7 mph6.0 kmh 30.36 in1028.1 mb 0.00 in0.0 mm 0.00 in0.0 mm 0.00 in0.0 mm
06:20 AM 61.2°F16.2°C 48.5°F9.2°C 63% 0.5 mph ESE0.8 kmh ESE 2.7 mph4.3 kmh 30.36 in1028.1 mb 0.00 in0.0 mm 0.00 in0.0 mm 0.00 in0.0 mm
06:25 AM 61.2°F16.2°C 48.5°F9.2°C 63% Calm Calm -- 30.37 in1028.4 mb 0.00 in0.0 mm 0.00 in0.0 mm 0.00 in0.0 mm
06:30 AM 61.2°F16.2°C 48.5°F9.2°C 63% 1.1 mph NW1.8 kmh NW 3.7 mph6.0 kmh 30.37 in1028.4 mb 0.00 in0.0 mm 0.00 in0.0 mm 0.00 in0.0 mm
06:35 AM 61.3°F16.3°C 48.6°F9.2°C 63% 0.2 mph NNW0.3 kmh NNW 1.7 mph2.7 kmh 30.37 in1028.4 mb 0.00 in0.0 mm 0.00 in0.0 mm 0.00 in0.0 mm
06:40 AM 61.3°F16.3°C 48.3°F9.1°C 62% 0.9 mph ESE1.4 kmh ESE 3.2 mph5.1 kmh 30.37 in1028.4 mb 0.00 in0.0 mm 0.00 in0.0 mm 0.00 in0.0 mm
06:45 AM 61.5°F16.4°C 48.3°F9.1°C 62% 1.6 mph SE2.6 kmh SE 3.7 mph6.0 kmh 30.37 in1028.4 mb 0.00 in0.0 mm 0.00 in0.0 mm 0.00 in0.0 mm
06:50 AM 61.5°F16.4°C 48.4°F9.1°C 62% 1.3 mph SE2.1 kmh SE 3.7 mph6.0 kmh 30.37 in1028.4 mb 0.00 in0.0 mm 0.00 in0.0 mm 0.00 in0.0 mm
06:55 AM 61.5°F16.4°C 48.4°F9.1°C 62% 0.9 mph SE1.4 kmh SE 3.2 mph5.1 kmh 30.37 in1028.4 mb 0.00 in0.0 mm 0.00 in0.0 mm 0.00 in0.0 mm
07:00 AM 61.7°F16.5°C 48.5°F9.2°C 62% 0.5 mph SSE0.8 kmh SSE 2.7 mph4.3 kmh 30.37 in1028.4 mb 0.00 in0.0 mm 0.00 in0.0 mm 0.00 in0.0 mm
07:05 AM 61.8°F16.6°C 48.6°F9.2°C 62% 1.4 mph E2.3 kmh E 4.2 mph6.8 kmh 30.37 in1028.4 mb 0.00 in0.0 mm 0.00 in0.0 mm 0.00 in0.0 mm
07:10 AM 61.9°F16.6°C 48.7°F9.3°C 62% 1.5 mph SE2.4 kmh SE 3.2 mph5.1 kmh 30.37 in1028.4 mb 0.00 in0.0 mm 0.00 in0.0 mm 0.00 in0.0 mm
07:15 AM 61.9°F16.6°C 48.8°F9.3°C 62% 1.8 mph S2.9 kmh S 4.7 mph7.6 kmh 30.37 in1028.4 mb 0.00 in0.0 mm 0.00 in0.0 mm 0.00 in0.0 mm
07:20 AM 62.2°F16.8°C 49.0°F9.4°C 62% 1.3 mph ENE2.1 kmh ENE 3.2 mph5.1 kmh 30.37 in1028.4 mb 0.00 in0.0 mm 0.00 in0.0 mm 0.00 in0.0 mm
07:25 AM 62.3°F16.8°C 49.1°F9.5°C 62% 0.7 mph SE1.1 kmh SE 2.2 mph3.5 kmh 30.38 in1028.8 mb 0.00 in0.0 mm 0.00 in0.0 mm 0.00 in0.0 mm
07:30 AM 62.4°F16.9°C 49.2°F9.6°C 62% 1.1 mph WNW1.8 kmh WNW 4.2 mph6.8 kmh 30.38 in1028.8 mb 0.00 in0.0 mm 0.00 in0.0 mm 0.00 in0.0 mm
07:35 AM 62.6°F17.0°C 49.4°F9.7°C 62% 1.1 mph NE1.8 kmh NE 2.2 mph3.5 kmh 30.38 in1028.8 mb 0.00 in0.0 mm 0.00 in0.0 mm 0.00 in0.0 mm
07:40 AM 62.6°F17.0°C 49.4°F9.7°C 62% 2.0 mph W3.2 kmh W 5.3 mph8.5 kmh 30.38 in1028.8 mb 0.00 in0.0 mm 0.00 in0.0 mm 0.00 in0.0 mm
07:45 AM 62.6°F17.0°C 49.4°F9.7°C 62% 1.2 mph ESE1.9 kmh ESE 2.7 mph4.3 kmh 30.38 in1028.8 mb 0.00 in0.0 mm 0.00 in0.0 mm 0.00 in0.0 mm
07:50 AM 62.9°F17.2°C 49.7°F9.8°C 62% 1.7 mph E2.7 kmh E 4.2 mph6.8 kmh 30.38 in1028.8 mb 0.00 in0.0 mm 0.00 in0.0 mm 0.00 in0.0 mm
07:55 AM 62.6°F17.0°C 49.5°F9.7°C 62% 1.5 mph S2.4 kmh S 3.2 mph5.1 kmh 30.38 in1028.8 mb 0.00 in0.0 mm 0.00 in0.0 mm 0.00 in0.0 mm
08:00 AM 62.4°F16.9°C 49.7°F9.8°C 63% 1.7 mph SW2.7 kmh SW 2.7 mph4.3 kmh 30.38 in1028.8 mb 0.00 in0.0 mm 0.00 in0.0 mm 0.00 in0.0 mm
08:05 AM 62.6°F17.0°C 49.8°F9.9°C 63% 1.0 mph S1.6 kmh S 3.7 mph6.0 kmh 30.38 in1028.8 mb 0.00 in0.0 mm 0.00 in0.0 mm 0.00 in0.0 mm
08:10 AM 62.8°F17.1°C 50.0°F10.0°C 63% 1.0 mph S1.6 kmh S 2.2 mph3.5 kmh 30.38 in1028.8 mb 0.00 in0.0 mm 0.00 in0.0 mm 0.00 in0.0 mm
08:15 AM 63.1°F17.3°C 50.3°F10.2°C 63% 1.7 mph SW2.7 kmh SW 3.2 mph5.1 kmh 30.38 in1028.8 mb 0.00 in0.0 mm 0.00 in0.0 mm 0.00 in0.0 mm
08:20 AM 63.3°F17.4°C 50.5°F10.3°C 63% 1.1 mph SSE1.8 kmh SSE 3.2 mph5.1 kmh 30.38 in1028.8 mb 0.00 in0.0 mm 0.00 in0.0 mm 0.00 in0.0 mm
08:25 AM 63.6°F17.6°C 50.8°F10.4°C 63% 1.1 mph ENE1.8 kmh ENE 2.7 mph4.3 kmh 30.38 in1028.8 mb 0.00 in0.0 mm 0.00 in0.0 mm 0.00 in0.0 mm
08:30 AM 63.8°F17.7°C 50.9°F10.5°C 63% 1.2 mph E1.9 kmh E 2.7 mph4.3 kmh 30.38 in1028.8 mb 0.00 in0.0 mm 0.00 in0.0 mm 0.00 in0.0 mm
08:35 AM 63.9°F17.7°C 51.1°F10.6°C 63% 1.0 mph SE1.6 kmh SE 2.2 mph3.5 kmh 30.38 in1028.8 mb 0.00 in0.0 mm 0.00 in0.0 mm 0.00 in0.0 mm
08:40 AM 64.0°F17.8°C 51.2°F10.7°C 63% 0.9 mph SE1.4 kmh SE 4.2 mph6.8 kmh 30.38 in1028.8 mb 0.00 in0.0 mm 0.00 in0.0 mm 0.00 in0.0 mm
08:45 AM 64.3°F17.9°C 51.5°F10.8°C 63% 1.6 mph S2.6 kmh S 3.7 mph6.0 kmh 30.38 in1028.8 mb 0.00 in0.0 mm 0.00 in0.0 mm 0.00 in0.0 mm
08:50 AM 64.7°F18.2°C 51.8°F11.0°C 63% 1.5 mph SE2.4 kmh SE 3.7 mph6.0 kmh 30.38 in1028.8 mb 0.00 in0.0 mm 0.00 in0.0 mm 0.00 in0.0 mm
08:55 AM 64.9°F18.3°C 52.0°F11.1°C 63% 1.6 mph SE2.6 kmh SE 3.7 mph6.0 kmh 30.38 in1028.8 mb 0.00 in0.0 mm 0.00 in0.0 mm 0.00 in0.0 mm
09:00 AM 65.6°F18.7°C 52.3°F11.3°C 62% 1.2 mph SE1.9 kmh SE 3.7 mph6.0 kmh 30.38 in1028.8 mb 0.00 in0.0 mm 0.00 in0.0 mm 0.00 in0.0 mm
09:05 AM 65.8°F18.8°C 52.4°F11.3°C 62% 1.1 mph NE1.8 kmh NE 2.7 mph4.3 kmh 30.38 in1028.8 mb 0.00 in0.0 mm 0.00 in0.0 mm 0.00 in0.0 mm
09:10 AM 65.5°F18.6°C 52.3°F11.3°C 62% 0.7 mph SSE1.1 kmh SSE 3.7 mph6.0 kmh 30.38 in1028.8 mb 0.00 in0.0 mm 0.00 in0.0 mm 0.00 in0.0 mm
09:15 AM 66.0°F18.9°C 52.7°F11.5°C 62% 0.1 mph S0.2 kmh S 1.1 mph1.8 kmh 30.38 in1028.8 mb 0.00 in0.0 mm 0.00 in0.0 mm 0.00 in0.0 mm
09:20 AM 66.2°F19.0°C 53.0°F11.7°C 63% 0.5 mph S0.8 kmh S 2.7 mph4.3 kmh 30.38 in1028.8 mb 0.00 in0.0 mm 0.00 in0.0 mm 0.00 in0.0 mm
09:25 AM 66.6°F19.2°C 53.2°F11.8°C 62% 1.4 mph SW2.3 kmh SW 3.2 mph5.1 kmh 30.38 in1028.8 mb 0.00 in0.0 mm 0.00 in0.0 mm 0.00 in0.0 mm
09:30 AM 67.0°F19.4°C 53.2°F11.8°C 61% 0.7 mph E1.1 kmh E 2.2 mph3.5 kmh 30.38 in1028.8 mb 0.00 in0.0 mm 0.00 in0.0 mm 0.00 in0.0 mm
09:35 AM 67.5°F19.7°C 53.3°F11.8°C 60% 0.4 mph W0.6 kmh W 2.7 mph4.3 kmh 30.38 in1028.8 mb 0.00 in0.0 mm 0.00 in0.0 mm 0.00 in0.0 mm
09:40 AM 68.1°F20.1°C 53.9°F12.2°C 60% 0.9 mph E1.4 kmh E 2.2 mph3.5 kmh 30.38 in1028.8 mb 0.00 in0.0 mm 0.00 in0.0 mm 0.00 in0.0 mm
09:45 AM 68.2°F20.1°C 54.5°F12.5°C 62% 1.0 mph SSW1.6 kmh SSW 1.7 mph2.7 kmh 30.38 in1028.8 mb 0.00 in0.0 mm 0.00 in0.0 mm 0.00 in0.0 mm
09:50 AM 68.6°F20.3°C 54.6°F12.6°C 61% 1.5 mph S2.4 kmh S 3.2 mph5.1 kmh 30.38 in1028.8 mb 0.00 in0.0 mm 0.00 in0.0 mm 0.00 in0.0 mm
09:55 AM 69.3°F20.7°C 55.1°F12.8°C 60% 1.2 mph E1.9 kmh E 2.7 mph4.3 kmh 30.37 in1028.4 mb 0.00 in0.0 mm 0.00 in0.0 mm 0.00 in0.0 mm
10:00 AM 68.8°F20.4°C 54.8°F12.7°C 61% 0.6 mph SSE1.0 kmh SSE 2.7 mph4.3 kmh 30.37 in1028.4 mb 0.00 in0.0 mm 0.00 in0.0 mm 0.00 in0.0 mm
10:05 AM 68.9°F20.5°C 55.3°F12.9°C 62% 0.7 mph SSW1.1 kmh SSW 2.7 mph4.3 kmh 30.37 in1028.4 mb 0.00 in0.0 mm 0.00 in0.0 mm 0.00 in0.0 mm
10:10 AM 68.6°F20.3°C 55.0°F12.8°C 62% 1.3 mph SE2.1 kmh SE 3.2 mph5.1 kmh 30.37 in1028.4 mb 0.00 in0.0 mm 0.00 in0.0 mm 0.00 in0.0 mm
10:15 AM 69.2°F20.7°C 55.7°F13.2°C 62% 0.8 mph E1.3 kmh E 1.7 mph2.7 kmh 30.37 in1028.4 mb 0.00 in0.0 mm 0.00 in0.0 mm 0.00 in0.0 mm
10:20 AM 69.0°F20.6°C 55.5°F13.1°C 62% 1.2 mph SE1.9 kmh SE 2.7 mph4.3 kmh 30.37 in1028.4 mb 0.00 in0.0 mm 0.00 in0.0 mm 0.00 in0.0 mm
10:25 AM 68.9°F20.5°C 55.5°F13.1°C 62% 1.0 mph S1.6 kmh S 2.2 mph3.5 kmh 30.37 in1028.4 mb 0.00 in0.0 mm 0.00 in0.0 mm 0.00 in0.0 mm
10:30 AM 69.6°F20.9°C 56.1°F13.4°C 62% 1.1 mph ESE1.8 kmh ESE 2.2 mph3.5 kmh 30.37 in1028.4 mb 0.00 in0.0 mm 0.00 in0.0 mm 0.00 in0.0 mm
10:35 AM 69.6°F20.9°C 56.0°F13.3°C 62% 1.5 mph E2.4 kmh E 3.2 mph5.1 kmh 30.37 in1028.4 mb 0.00 in0.0 mm 0.00 in0.0 mm 0.00 in0.0 mm
10:40 AM 69.3°F20.7°C 55.9°F13.3°C 62% 0.8 mph NW1.3 kmh NW 2.2 mph3.5 kmh 30.37 in1028.4 mb 0.00 in0.0 mm 0.00 in0.0 mm 0.00 in0.0 mm
10:45 AM 69.6°F20.9°C 56.0°F13.3°C 62% 0.9 mph S1.4 kmh S 3.2 mph5.1 kmh 30.37 in1028.4 mb 0.00 in0.0 mm 0.00 in0.0 mm 0.00 in0.0 mm
10:50 AM 69.4°F20.8°C 56.1°F13.4°C 63% 1.3 mph NE2.1 kmh NE 2.7 mph4.3 kmh 30.36 in1028.1 mb 0.00 in0.0 mm 0.00 in0.0 mm 0.00 in0.0 mm
10:55 AM 69.7°F20.9°C 56.9°F13.8°C 64% 1.4 mph S2.3 kmh S 3.2 mph5.1 kmh 30.36 in1028.1 mb 0.00 in0.0 mm 0.00 in0.0 mm 0.00 in0.0 mm
11:00 AM 70.7°F21.5°C 57.0°F13.9°C 62% 1.5 mph S2.4 kmh S 3.7 mph6.0 kmh 30.36 in1028.1 mb 0.00 in0.0 mm 0.00 in0.0 mm 0.00 in0.0 mm
11:05 AM 70.7°F21.5°C 57.1°F13.9°C 62% 1.6 mph E2.6 kmh E 4.2 mph6.8 kmh 30.36 in1028.1 mb 0.00 in0.0 mm 0.00 in0.0 mm 0.00 in0.0 mm
11:10 AM 71.3°F21.8°C 57.4°F14.1°C 62% 1.9 mph SSE3.1 kmh SSE 4.2 mph6.8 kmh 30.36 in1028.1 mb 0.00 in0.0 mm 0.00 in0.0 mm 0.00 in0.0 mm
11:15 AM 71.0°F21.7°C 57.3°F14.1°C 62% 1.9 mph S3.1 kmh S 2.7 mph4.3 kmh 30.36 in1028.1 mb 0.00 in0.0 mm 0.00 in0.0 mm 0.00 in0.0 mm
11:20 AM 71.5°F21.9°C 57.4°F14.1°C 61% 2.2 mph SE3.5 kmh SE 3.2 mph5.1 kmh 30.36 in1028.1 mb 0.00 in0.0 mm 0.00 in0.0 mm 0.00 in0.0 mm
11:25 AM 71.8°F22.1°C 57.7°F14.3°C 61% 1.9 mph S3.1 kmh S 3.2 mph5.1 kmh 30.36 in1028.1 mb 0.00 in0.0 mm 0.00 in0.0 mm 0.00 in0.0 mm
11:30 AM 73.1°F22.8°C 58.0°F14.4°C 59% 1.4 mph NE2.3 kmh NE 4.2 mph6.8 kmh 30.36 in1028.1 mb 0.00 in0.0 mm 0.00 in0.0 mm 0.00 in0.0 mm
11:35 AM 73.3°F22.9°C 58.1°F14.5°C 59% 1.5 mph E2.4 kmh E 3.2 mph5.1 kmh 30.36 in1028.1 mb 0.00 in0.0 mm 0.00 in0.0 mm 0.00 in0.0 mm
11:40 AM 72.0°F22.2°C 56.7°F13.7°C 59% 2.0 mph S3.2 kmh S 3.7 mph6.0 kmh 30.36 in1028.1 mb 0.00 in0.0 mm 0.00 in0.0 mm 0.00 in0.0 mm
11:45 AM 71.4°F21.9°C 57.1°F13.9°C 61% 0.6 mph S1.0 kmh S 3.2 mph5.1 kmh 30.36 in1028.1 mb 0.00 in0.0 mm 0.00 in0.0 mm 0.00 in0.0 mm
11:50 AM 70.7°F21.5°C 55.6°F13.1°C 59% 1.5 mph SSE2.4 kmh SSE 3.2 mph5.1 kmh 30.36 in1028.1 mb 0.00 in0.0 mm 0.00 in0.0 mm 0.00 in0.0 mm
11:55 AM 71.5°F21.9°C 55.4°F13.0°C 57% 2.2 mph SE3.5 kmh SE 3.2 mph5.1 kmh 30.36 in1028.1 mb 0.00 in0.0 mm 0.00 in0.0 mm 0.00 in0.0 mm
12:00 PM 71.1°F21.7°C 55.8°F13.2°C 58% 2.0 mph SSW3.2 kmh SSW 3.7 mph6.0 kmh 30.36 in1028.1 mb 0.00 in0.0 mm 0.00 in0.0 mm 0.00 in0.0 mm
12:05 PM 71.2°F21.8°C 56.6°F13.7°C 60% 1.3 mph S2.1 kmh S 2.7 mph4.3 kmh 30.36 in1028.1 mb 0.00 in0.0 mm 0.00 in0.0 mm 0.00 in0.0 mm
12:10 PM 71.2°F21.8°C 58.0°F14.4°C 63% 0.8 mph SE1.3 kmh SE 2.7 mph4.3 kmh 30.36 in1028.1 mb 0.00 in0.0 mm 0.00 in0.0 mm 0.00 in0.0 mm
12:15 PM 71.2°F21.8°C 57.5°F14.2°C 62% 1.6 mph S2.6 kmh S 3.2 mph5.1 kmh 30.36 in1028.1 mb 0.00 in0.0 mm 0.00 in0.0 mm 0.00 in0.0 mm
12:20 PM 71.2°F21.8°C 57.5°F14.2°C 62% 2.7 mph SSE4.3 kmh SSE 5.3 mph8.5 kmh 30.36 in1028.1 mb 0.00 in0.0 mm 0.00 in0.0 mm 0.00 in0.0 mm
12:25 PM 70.3°F21.3°C 56.9°F13.8°C 63% 2.4 mph S3.9 kmh S 4.7 mph7.6 kmh 30.35 in1027.8 mb 0.00 in0.0 mm 0.00 in0.0 mm 0.00 in0.0 mm
12:30 PM 71.9°F22.2°C 57.5°F14.2°C 61% 2.1 mph N3.4 kmh N 4.2 mph6.8 kmh 30.35 in1027.8 mb 0.00 in0.0 mm 0.00 in0.0 mm 0.00 in0.0 mm
12:35 PM 72.6°F22.6°C 57.8°F14.3°C 60% 2.7 mph SSE4.3 kmh SSE 4.2 mph6.8 kmh 30.35 in1027.8 mb 0.00 in0.0 mm 0.00 in0.0 mm 0.00 in0.0 mm
12:40 PM 72.4°F22.4°C 57.3°F14.1°C 59% 1.4 mph S2.3 kmh S 3.7 mph6.0 kmh 30.34 in1027.4 mb 0.00 in0.0 mm 0.00 in0.0 mm 0.00 in0.0 mm
12:45 PM 73.1°F22.8°C 57.0°F13.9°C 57% 1.2 mph S1.9 kmh S 3.2 mph5.1 kmh 30.34 in1027.4 mb 0.00 in0.0 mm 0.00 in0.0 mm 0.00 in0.0 mm
12:50 PM 73.2°F22.9°C 56.7°F13.7°C 56% 1.9 mph S3.1 kmh S 3.2 mph5.1 kmh 30.34 in1027.4 mb 0.00 in0.0 mm 0.00 in0.0 mm 0.00 in0.0 mm
12:55 PM 73.5°F23.1°C 57.1°F13.9°C 57% 1.3 mph S2.1 kmh S 2.7 mph4.3 kmh 30.34 in1027.4 mb 0.00 in0.0 mm 0.00 in0.0 mm 0.00 in0.0 mm
01:00 PM 73.1°F22.8°C 57.2°F14.0°C 57% 1.4 mph S2.3 kmh S 3.2 mph5.1 kmh 30.33 in1027.1 mb 0.00 in0.0 mm 0.00 in0.0 mm 0.00 in0.0 mm
01:05 PM 72.8°F22.7°C 57.0°F13.9°C 58% 2.0 mph SE3.2 kmh SE 4.2 mph6.8 kmh 30.33 in1027.1 mb 0.00 in0.0 mm 0.00 in0.0 mm 0.00 in0.0 mm
01:10 PM 73.0°F22.8°C 57.2°F14.0°C 58% 1.3 mph SW2.1 kmh SW 3.7 mph6.0 kmh 30.33 in1027.1 mb 0.00 in0.0 mm 0.00 in0.0 mm 0.00 in0.0 mm
01:15 PM 74.2°F23.4°C 57.3°F14.1°C 56% 1.9 mph S3.1 kmh S 4.2 mph6.8 kmh 30.33 in1027.1 mb 0.00 in0.0 mm 0.00 in0.0 mm 0.00 in0.0 mm
01:20 PM 73.6°F23.1°C 57.7°F14.3°C 58% 1.5 mph S2.4 kmh S 2.7 mph4.3 kmh 30.33 in1027.1 mb 0.00 in0.0 mm 0.00 in0.0 mm 0.00 in0.0 mm
01:25 PM 74.0°F23.3°C 58.1°F14.5°C 58% 1.3 mph SE2.1 kmh SE 3.2 mph5.1 kmh 30.33 in1027.1 mb 0.00 in0.0 mm 0.00 in0.0 mm 0.00 in0.0 mm
01:30 PM 73.1°F22.8°C 57.4°F14.1°C 58% 0.9 mph SW1.4 kmh SW 5.8 mph9.3 kmh 30.33 in1027.1 mb 0.00 in0.0 mm 0.00 in0.0 mm 0.00 in0.0 mm
01:35 PM 73.3°F22.9°C 57.8°F14.3°C 58% 1.7 mph SSW2.7 kmh SSW 3.2 mph5.1 kmh 30.33 in1027.1 mb 0.00 in0.0 mm 0.00 in0.0 mm 0.00 in0.0 mm
01:40 PM 73.9°F23.3°C 58.0°F14.4°C 58% 1.9 mph SE3.1 kmh SE 3.7 mph6.0 kmh 30.32 in1026.8 mb 0.00 in0.0 mm 0.00 in0.0 mm 0.00 in0.0 mm
01:45 PM 72.8°F22.7°C 56.7°F13.7°C 57% 2.5 mph E4.0 kmh E 5.3 mph8.5 kmh 30.32 in1026.8 mb 0.00 in0.0 mm 0.00 in0.0 mm 0.00 in0.0 mm
01:50 PM 72.6°F22.6°C 57.0°F13.9°C 58% 1.6 mph S2.6 kmh S 2.7 mph4.3 kmh 30.32 in1026.8 mb 0.00 in0.0 mm 0.00 in0.0 mm 0.00 in0.0 mm
01:55 PM 73.0°F22.8°C 57.2°F14.0°C 58% 1.5 mph SSE2.4 kmh SSE 2.7 mph4.3 kmh 30.33 in1027.1 mb 0.00 in0.0 mm 0.00 in0.0 mm 0.00 in0.0 mm
02:00 PM 72.5°F22.5°C 56.4°F13.6°C 57% 2.2 mph S3.5 kmh S 4.7 mph7.6 kmh 30.33 in1027.1 mb 0.00 in0.0 mm 0.00 in0.0 mm 0.00 in0.0 mm
02:05 PM 71.3°F21.8°C 56.3°F13.5°C 59% 1.6 mph SSW2.6 kmh SSW 3.2 mph5.1 kmh 30.32 in1026.8 mb 0.00 in0.0 mm 0.00 in0.0 mm 0.00 in0.0 mm
02:10 PM 71.0°F21.7°C 56.1°F13.4°C 59% 2.5 mph SSE4.0 kmh SSE 4.2 mph6.8 kmh 30.32 in1026.8 mb 0.00 in0.0 mm 0.00 in0.0 mm 0.00 in0.0 mm
02:15 PM 72.0°F22.2°C 56.4°F13.6°C 58% 1.4 mph WSW2.3 kmh WSW 3.2 mph5.1 kmh 30.32 in1026.8 mb 0.00 in0.0 mm 0.00 in0.0 mm 0.00 in0.0 mm
02:20 PM 73.0°F22.8°C 56.9°F13.8°C 57% 2.2 mph S3.5 kmh S 5.3 mph8.5 kmh 30.32 in1026.8 mb 0.00 in0.0 mm 0.00 in0.0 mm 0.00 in0.0 mm
02:25 PM 72.6°F22.6°C 56.8°F13.8°C 58% 2.7 mph S4.3 kmh S 3.7 mph6.0 kmh 30.32 in1026.8 mb 0.00 in0.0 mm 0.00 in0.0 mm 0.00 in0.0 mm
02:30 PM 71.0°F21.7°C 55.9°F13.3°C 59% 1.7 mph SSW2.7 kmh SSW 2.7 mph4.3 kmh 30.31 in1026.4 mb 0.00 in0.0 mm 0.00 in0.0 mm 0.00 in0.0 mm
02:35 PM 70.5°F21.4°C 55.5°F13.1°C 59% 2.1 mph SW3.4 kmh SW 5.3 mph8.5 kmh 30.31 in1026.4 mb 0.00 in0.0 mm 0.00 in0.0 mm 0.00 in0.0 mm
02:40 PM 70.2°F21.2°C 55.2°F12.9°C 59% 1.5 mph S2.4 kmh S 4.7 mph7.6 kmh 30.31 in1026.4 mb 0.00 in0.0 mm 0.00 in0.0 mm 0.00 in0.0 mm
02:45 PM 70.3°F21.3°C 55.8°F13.2°C 60% 2.3 mph S3.7 kmh S 5.3 mph8.5 kmh 30.31 in1026.4 mb 0.00 in0.0 mm 0.00 in0.0 mm 0.00 in0.0 mm
02:50 PM 70.6°F21.4°C 56.6°F13.7°C 61% 2.3 mph S3.7 kmh S 4.7 mph7.6 kmh 30.30 in1026.1 mb 0.00 in0.0 mm 0.00 in0.0 mm 0.00 in0.0 mm
02:55 PM 70.2°F21.2°C 56.1°F13.4°C 61% 2.2 mph SSW3.5 kmh SSW 3.7 mph6.0 kmh 30.30 in1026.1 mb 0.00 in0.0 mm 0.00 in0.0 mm 0.00 in0.0 mm
03:00 PM 69.7°F20.9°C 56.3°F13.5°C 62% 2.4 mph S3.9 kmh S 3.7 mph6.0 kmh 30.30 in1026.1 mb 0.00 in0.0 mm 0.00 in0.0 mm 0.00 in0.0 mm
03:05 PM 69.4°F20.8°C 56.4°F13.6°C 63% 2.2 mph SSW3.5 kmh SSW 4.2 mph6.8 kmh 30.30 in1026.1 mb 0.00 in0.0 mm 0.00 in0.0 mm 0.00 in0.0 mm
03:10 PM 69.6°F20.9°C 56.4°F13.6°C 63% 2.2 mph S3.5 kmh S 4.7 mph7.6 kmh 30.30 in1026.1 mb 0.00 in0.0 mm 0.00 in0.0 mm 0.00 in0.0 mm
03:15 PM 69.8°F21.0°C 56.4°F13.6°C 63% 2.3 mph SSE3.7 kmh SSE 3.2 mph5.1 kmh 30.30 in1026.1 mb 0.00 in0.0 mm 0.00 in0.0 mm 0.00 in0.0 mm
03:20 PM 69.7°F20.9°C 56.5°F13.6°C 63% 1.4 mph S2.3 kmh S 3.2 mph5.1 kmh 30.30 in1026.1 mb 0.00 in0.0 mm 0.00 in0.0 mm 0.00 in0.0 mm
03:25 PM 69.1°F20.6°C 56.4°F13.6°C 64% 2.0 mph S3.2 kmh S 4.2 mph6.8 kmh 30.30 in1026.1 mb 0.00 in0.0 mm 0.00 in0.0 mm 0.00 in0.0 mm
03:30 PM 68.9°F20.5°C 56.1°F13.4°C 64% 0.9 mph SSW1.4 kmh SSW 3.7 mph6.0 kmh 30.30 in1026.1 mb 0.00 in0.0 mm 0.00 in0.0 mm 0.00 in0.0 mm
03:35 PM 68.5°F20.3°C 55.9°F13.3°C 64% 2.0 mph S3.2 kmh S 3.7 mph6.0 kmh 30.30 in1026.1 mb 0.00 in0.0 mm 0.00 in0.0 mm 0.00 in0.0 mm
03:40 PM 68.5°F20.3°C 55.9°F13.3°C 64% 2.0 mph S3.2 kmh S 3.2 mph5.1 kmh 30.30 in1026.1 mb 0.00 in0.0 mm 0.00 in0.0 mm 0.00 in0.0 mm
03:45 PM 68.0°F20.0°C 55.8°F13.2°C 65% 2.3 mph SE3.7 kmh SE 3.7 mph6.0 kmh 30.30 in1026.1 mb 0.00 in0.0 mm 0.00 in0.0 mm 0.00 in0.0 mm
03:50 PM 68.0°F20.0°C 56.1°F13.4°C 66% 1.0 mph S1.6 kmh S 2.2 mph3.5 kmh 30.30 in1026.1 mb 0.00 in0.0 mm 0.00 in0.0 mm 0.00 in0.0 mm
03:55 PM 68.4°F20.2°C 56.3°F13.5°C 65% 1.8 mph SSE2.9 kmh SSE 3.7 mph6.0 kmh 30.30 in1026.1 mb 0.00 in0.0 mm 0.00 in0.0 mm 0.00 in0.0 mm
04:00 PM 68.3°F20.2°C 56.1°F13.4°C 65% 2.0 mph S3.2 kmh S 4.7 mph7.6 kmh 30.30 in1026.1 mb 0.00 in0.0 mm 0.00 in0.0 mm 0.00 in0.0 mm
04:05 PM 67.8°F19.9°C 55.8°F13.2°C 66% 1.0 mph SSE1.6 kmh SSE 3.2 mph5.1 kmh 30.29 in1025.7 mb 0.00 in0.0 mm 0.00 in0.0 mm 0.00 in0.0 mm
04:10 PM 67.4°F19.7°C 55.7°F13.2°C 66% 2.5 mph S4.0 kmh S 4.2 mph6.8 kmh 30.29 in1025.7 mb 0.00 in0.0 mm 0.00 in0.0 mm 0.00 in0.0 mm
04:15 PM 67.3°F19.6°C 55.9°F13.3°C 67% 1.9 mph S3.1 kmh S 4.7 mph7.6 kmh 30.29 in1025.7 mb 0.00 in0.0 mm 0.00 in0.0 mm 0.00 in0.0 mm
04:20 PM 67.3°F19.6°C 56.0°F13.3°C 67% 0.9 mph SW1.4 kmh SW 2.2 mph3.5 kmh 30.29 in1025.7 mb 0.00 in0.0 mm 0.00 in0.0 mm 0.00 in0.0 mm
04:25 PM 67.3°F19.6°C 56.0°F13.3°C 67% 0.6 mph SSW1.0 kmh SSW 2.7 mph4.3 kmh 30.29 in1025.7 mb 0.00 in0.0 mm 0.00 in0.0 mm 0.00 in0.0 mm
04:30 PM 67.2°F19.6°C 55.8°F13.2°C 67% 1.3 mph SSE2.1 kmh SSE 2.7 mph4.3 kmh 30.29 in1025.7 mb 0.00 in0.0 mm 0.00 in0.0 mm 0.00 in0.0 mm
04:35 PM 66.9°F19.4°C 55.6°F13.1°C 67% 1.7 mph SE2.7 kmh SE 3.2 mph5.1 kmh 30.29 in1025.7 mb 0.00 in0.0 mm 0.00 in0.0 mm 0.00 in0.0 mm
04:40 PM 66.7°F19.3°C 55.4°F13.0°C 67% 1.9 mph SSW3.1 kmh SSW 3.2 mph5.1 kmh 30.29 in1025.7 mb 0.00 in0.0 mm 0.00 in0.0 mm 0.00 in0.0 mm
04:45 PM 66.6°F19.2°C 55.3°F12.9°C 67% 0.9 mph SE1.4 kmh SE 2.7 mph4.3 kmh 30.29 in1025.7 mb 0.00 in0.0 mm 0.00 in0.0 mm 0.00 in0.0 mm
04:50 PM 66.6°F19.2°C 55.3°F12.9°C 67% 0.6 mph SSW1.0 kmh SSW 1.7 mph2.7 kmh 30.29 in1025.7 mb 0.00 in0.0 mm 0.00 in0.0 mm 0.00 in0.0 mm
04:55 PM 66.5°F19.2°C 55.2°F12.9°C 67% 1.6 mph S2.6 kmh S 3.2 mph5.1 kmh 30.28 in1025.4 mb 0.00 in0.0 mm 0.00 in0.0 mm 0.00 in0.0 mm
05:00 PM 66.3°F19.1°C 55.0°F12.8°C 67% 1.1 mph S1.8 kmh S 2.7 mph4.3 kmh 30.28 in1025.4 mb 0.00 in0.0 mm 0.00 in0.0 mm 0.00 in0.0 mm
05:05 PM 66.2°F19.0°C 54.9°F12.7°C 67% 1.1 mph SE1.8 kmh SE 2.2 mph3.5 kmh 30.29 in1025.7 mb 0.00 in0.0 mm 0.00 in0.0 mm 0.00 in0.0 mm
05:10 PM 66.0°F18.9°C 54.8°F12.7°C 67% 0.7 mph SE1.1 kmh SE 2.2 mph3.5 kmh 30.29 in1025.7 mb 0.00 in0.0 mm 0.00 in0.0 mm 0.00 in0.0 mm
05:15 PM 66.0°F18.9°C 54.7°F12.6°C 67% 1.0 mph SSW1.6 kmh SSW 2.2 mph3.5 kmh 30.29 in1025.7 mb 0.00 in0.0 mm 0.00 in0.0 mm 0.00 in0.0 mm
05:20 PM 65.8°F18.8°C 54.5°F12.5°C 67% 1.2 mph S1.9 kmh S 2.7 mph4.3 kmh 30.29 in1025.7 mb 0.00 in0.0 mm 0.00 in0.0 mm 0.00 in0.0 mm
05:25 PM 65.7°F18.7°C 54.4°F12.4°C 67% 0.7 mph SSE1.1 kmh SSE 2.2 mph3.5 kmh 30.29 in1025.7 mb 0.00 in0.0 mm 0.00 in0.0 mm 0.00 in0.0 mm
05:30 PM 65.7°F18.7°C 54.4°F12.4°C 67% 1.0 mph S1.6 kmh S 2.2 mph3.5 kmh 30.28 in1025.4 mb 0.00 in0.0 mm 0.00 in0.0 mm 0.00 in0.0 mm
05:35 PM 65.7°F18.7°C 54.5°F12.5°C 67% 0.5 mph S0.8 kmh S 2.2 mph3.5 kmh 30.28 in1025.4 mb 0.00 in0.0 mm 0.00 in0.0 mm 0.00 in0.0 mm
05:40 PM 65.6°F18.7°C 54.8°F12.7°C 68% 0.9 mph SSE1.4 kmh SSE 2.7 mph4.3 kmh 30.28 in1025.4 mb 0.00 in0.0 mm 0.00 in0.0 mm 0.00 in0.0 mm
05:45 PM 65.5°F18.6°C 54.9°F12.7°C 69% 1.0 mph SSW1.6 kmh SSW 3.2 mph5.1 kmh 30.28 in1025.4 mb 0.00 in0.0 mm 0.00 in0.0 mm 0.00 in0.0 mm
05:50 PM 65.5°F18.6°C 55.1°F12.8°C 69% 1.5 mph S2.4 kmh S 4.2 mph6.8 kmh 30.28 in1025.4 mb 0.00 in0.0 mm 0.00 in0.0 mm 0.00 in0.0 mm
05:55 PM 65.4°F18.6°C 54.9°F12.7°C 69% 0.8 mph SE1.3 kmh SE 2.7 mph4.3 kmh 30.28 in1025.4 mb 0.00 in0.0 mm 0.00 in0.0 mm 0.00 in0.0 mm
06:00 PM 65.3°F18.5°C 55.1°F12.8°C 70% 0.3 mph SE0.5 kmh SE 1.7 mph2.7 kmh 30.28 in1025.4 mb 0.00 in0.0 mm 0.00 in0.0 mm 0.00 in0.0 mm
06:05 PM 65.3°F18.5°C 54.9°F12.7°C 69% 0.5 mph S0.8 kmh S 2.2 mph3.5 kmh 30.27 in1025.1 mb 0.00 in0.0 mm 0.00 in0.0 mm 0.00 in0.0 mm
06:10 PM 65.2°F18.4°C 54.7°F12.6°C 69% 0.3 mph S0.5 kmh S 2.2 mph3.5 kmh 30.27 in1025.1 mb 0.00 in0.0 mm 0.00 in0.0 mm 0.00 in0.0 mm
06:15 PM 65.1°F18.4°C 54.7°F12.6°C 69% 1.1 mph SSE1.8 kmh SSE 2.7 mph4.3 kmh 30.28 in1025.4 mb 0.00 in0.0 mm 0.00 in0.0 mm 0.00 in0.0 mm
06:20 PM 65.1°F18.4°C 54.7°F12.6°C 69% 1.1 mph SSE1.8 kmh SSE 2.2 mph3.5 kmh 30.28 in1025.4 mb 0.00 in0.0 mm 0.00 in0.0 mm 0.00 in0.0 mm
06:25 PM 65.1°F18.4°C 54.7°F12.6°C 69% 0.5 mph SE0.8 kmh SE 2.7 mph4.3 kmh 30.27 in1025.1 mb 0.00 in0.0 mm 0.00 in0.0 mm 0.00 in0.0 mm
06:30 PM 65.1°F18.4°C 55.3°F12.9°C 70% 0.3 mph SE0.5 kmh SE 1.7 mph2.7 kmh 30.27 in1025.1 mb 0.00 in0.0 mm 0.00 in0.0 mm 0.00 in0.0 mm
06:35 PM 65.1°F18.4°C 55.5°F13.1°C 71% 0.2 mph WSW0.3 kmh WSW 1.7 mph2.7 kmh 30.27 in1025.1 mb 0.00 in0.0 mm 0.00 in0.0 mm 0.00 in0.0 mm
06:40 PM 65.1°F18.4°C 55.5°F13.1°C 71% 0.9 mph SE1.4 kmh SE 1.7 mph2.7 kmh 30.27 in1025.1 mb 0.00 in0.0 mm 0.00 in0.0 mm 0.00 in0.0 mm
06:45 PM 65.1°F18.4°C 55.6°F13.1°C 71% 0.7 mph S1.1 kmh S 2.2 mph3.5 kmh 30.27 in1025.1 mb 0.00 in0.0 mm 0.00 in0.0 mm 0.00 in0.0 mm
06:50 PM 65.1°F18.4°C 55.5°F13.1°C 71% Calm Calm -- 30.28 in1025.4 mb 0.00 in0.0 mm 0.00 in0.0 mm 0.00 in0.0 mm
06:55 PM 65.1°F18.4°C 55.5°F13.1°C 71% 0.5 mph S0.8 kmh S 2.2 mph3.5 kmh 30.28 in1025.4 mb 0.00 in0.0 mm 0.00 in0.0 mm 0.00 in0.0 mm
07:00 PM 65.0°F18.3°C 55.8°F13.2°C 72% 1.2 mph SSW1.9 kmh SSW 2.7 mph4.3 kmh 30.28 in1025.4 mb 0.00 in0.0 mm 0.00 in0.0 mm 0.00 in0.0 mm
07:05 PM 64.9°F18.3°C 55.3°F12.9°C 71% 0.7 mph SSE1.1 kmh SSE 1.7 mph2.7 kmh 30.28 in1025.4 mb 0.00 in0.0 mm 0.00 in0.0 mm 0.00 in0.0 mm
07:10 PM 64.9°F18.3°C 55.3°F12.9°C 71% 1.2 mph S1.9 kmh S 3.2 mph5.1 kmh 30.28 in1025.4 mb 0.00 in0.0 mm 0.00 in0.0 mm 0.00 in0.0 mm
07:15 PM 64.9°F18.3°C 55.4°F13.0°C 71% 0.6 mph SW1.0 kmh SW 2.7 mph4.3 kmh 30.28 in1025.4 mb 0.00 in0.0 mm 0.00 in0.0 mm 0.00 in0.0 mm
07:20 PM 64.9°F18.3°C 55.7°F13.2°C 72% 0.3 mph SE0.5 kmh SE 1.7 mph2.7 kmh 30.28 in1025.4 mb 0.00 in0.0 mm 0.00 in0.0 mm 0.00 in0.0 mm
07:25 PM 64.9°F18.3°C 55.7°F13.2°C 72% 1.0 mph SE1.6 kmh SE 2.7 mph4.3 kmh 30.28 in1025.4 mb 0.00 in0.0 mm 0.00 in0.0 mm 0.00 in0.0 mm
07:30 PM 64.9°F18.3°C 55.7°F13.2°C 72% 0.1 mph ESE0.2 kmh ESE 1.1 mph1.8 kmh 30.28 in1025.4 mb 0.00 in0.0 mm 0.00 in0.0 mm 0.00 in0.0 mm
07:35 PM 64.9°F18.3°C 55.7°F13.2°C 72% 0.9 mph SE1.4 kmh SE 2.2 mph3.5 kmh 30.28 in1025.4 mb 0.00 in0.0 mm 0.00 in0.0 mm 0.00 in0.0 mm
07:40 PM 64.9°F18.3°C 55.7°F13.2°C 72% 1.0 mph S1.6 kmh S 3.2 mph5.1 kmh 30.27 in1025.1 mb 0.00 in0.0 mm 0.00 in0.0 mm 0.00 in0.0 mm
07:45 PM 64.9°F18.3°C 55.7°F13.2°C 72% 0.5 mph S0.8 kmh S 2.2 mph3.5 kmh 30.27 in1025.1 mb 0.00 in0.0 mm 0.00 in0.0 mm 0.00 in0.0 mm
07:50 PM 64.9°F18.3°C 55.9°F13.3°C 73% 1.6 mph S2.6 kmh S 3.7 mph6.0 kmh 30.27 in1025.1 mb 0.00 in0.0 mm 0.00 in0.0 mm 0.00 in0.0 mm
07:55 PM 64.9°F18.3°C 56.0°F13.3°C 73% 0.9 mph S1.4 kmh S 3.2 mph5.1 kmh 30.27 in1025.1 mb 0.00 in0.0 mm 0.00 in0.0 mm 0.00 in0.0 mm
08:00 PM 64.8°F18.2°C 56.0°F13.3°C 73% 0.9 mph SSE1.4 kmh SSE 2.2 mph3.5 kmh 30.27 in1025.1 mb 0.00 in0.0 mm 0.00 in0.0 mm 0.00 in0.0 mm
08:05 PM 64.8°F18.2°C 56.2°F13.4°C 74% 0.6 mph SSE1.0 kmh SSE 2.2 mph3.5 kmh 30.27 in1025.1 mb 0.00 in0.0 mm 0.00 in0.0 mm 0.00 in0.0 mm
08:10 PM 64.8°F18.2°C 56.2°F13.4°C 74% 1.4 mph SW2.3 kmh SW 2.7 mph4.3 kmh 30.27 in1025.1 mb 0.00 in0.0 mm 0.00 in0.0 mm 0.00 in0.0 mm
08:15 PM 64.8°F18.2°C 55.9°F13.3°C 73% 0.4 mph SSW0.6 kmh SSW 2.2 mph3.5 kmh 30.27 in1025.1 mb 0.00 in0.0 mm 0.00 in0.0 mm 0.00 in0.0 mm
08:20 PM 64.8°F18.2°C 55.9°F13.3°C 73% 0.2 mph S0.3 kmh S 1.1 mph1.8 kmh 30.27 in1025.1 mb 0.00 in0.0 mm 0.00 in0.0 mm 0.00 in0.0 mm
08:25 PM 64.8°F18.2°C 55.9°F13.3°C 73% 0.7 mph S1.1 kmh S 2.2 mph3.5 kmh 30.27 in1025.1 mb 0.00 in0.0 mm 0.00 in0.0 mm 0.00 in0.0 mm
08:30 PM 64.8°F18.2°C 55.9°F13.3°C 73% 0.8 mph S1.3 kmh S 2.2 mph3.5 kmh 30.27 in1025.1 mb 0.00 in0.0 mm 0.00 in0.0 mm 0.00 in0.0 mm
08:35 PM 64.8°F18.2°C 55.9°F13.3°C 73% 0.1 mph W0.2 kmh W 1.1 mph1.8 kmh 30.27 in1025.1 mb 0.00 in0.0 mm 0.00 in0.0 mm 0.00 in0.0 mm
08:40 PM 64.8°F18.2°C 55.9°F13.3°C 73% 0.7 mph S1.1 kmh S 2.2 mph3.5 kmh 30.27 in1025.1 mb 0.00 in0.0 mm 0.00 in0.0 mm 0.00 in0.0 mm
08:45 PM 64.8°F18.2°C 55.9°F13.3°C 73% 0.8 mph SE1.3 kmh SE 2.2 mph3.5 kmh 30.27 in1025.1 mb 0.00 in0.0 mm 0.00 in0.0 mm 0.00 in0.0 mm
08:50 PM 64.8°F18.2°C 55.9°F13.3°C 73% 1.0 mph SE1.6 kmh SE 2.7 mph4.3 kmh 30.27 in1025.1 mb 0.00 in0.0 mm 0.00 in0.0 mm 0.00 in0.0 mm
08:55 PM 64.8°F18.2°C 56.1°F13.4°C 73% 0.5 mph SE0.8 kmh SE 1.7 mph2.7 kmh 30.27 in1025.1 mb 0.00 in0.0 mm 0.00 in0.0 mm 0.00 in0.0 mm
09:00 PM 64.8°F18.2°C 56.3°F13.5°C 74% 0.9 mph SSE1.4 kmh SSE 2.7 mph4.3 kmh 30.27 in1025.1 mb 0.00 in0.0 mm 0.00 in0.0 mm 0.00 in0.0 mm
09:05 PM 64.8°F18.2°C 56.3°F13.5°C 74% 0.1 mph N0.2 kmh N 2.2 mph3.5 kmh 30.27 in1025.1 mb 0.00 in0.0 mm 0.00 in0.0 mm 0.00 in0.0 mm
09:10 PM 64.8°F18.2°C 56.3°F13.5°C 74% Calm Calm -- 30.27 in1025.1 mb 0.00 in0.0 mm 0.00 in0.0 mm 0.00 in0.0 mm
09:15 PM 64.8°F18.2°C 56.3°F13.5°C 74% 0.1 mph E0.2 kmh E 1.1 mph1.8 kmh 30.27 in1025.1 mb 0.00 in0.0 mm 0.00 in0.0 mm 0.00 in0.0 mm
09:20 PM 64.8°F18.2°C 56.2°F13.4°C 74% 0.7 mph SE1.1 kmh SE 2.2 mph3.5 kmh 30.27 in1025.1 mb 0.00 in0.0 mm 0.00 in0.0 mm 0.00 in0.0 mm
09:25 PM 64.8°F18.2°C 55.9°F13.3°C 73% 0.5 mph S0.8 kmh S 2.2 mph3.5 kmh 30.27 in1025.1 mb 0.00 in0.0 mm 0.00 in0.0 mm 0.00 in0.0 mm
09:30 PM 64.8°F18.2°C 55.9°F13.3°C 73% 0.2 mph N0.3 kmh N 1.7 mph2.7 kmh 30.27 in1025.1 mb 0.00 in0.0 mm 0.00 in0.0 mm 0.00 in0.0 mm
09:35 PM 64.8°F18.2°C 56.1°F13.4°C 73% 0.9 mph S1.4 kmh S 2.2 mph3.5 kmh 30.27 in1025.1 mb 0.00 in0.0 mm 0.00 in0.0 mm 0.00 in0.0 mm
09:40 PM 64.8°F18.2°C 56.3°F13.5°C 74% 0.2 mph S0.3 kmh S 1.7 mph2.7 kmh 30.27 in1025.1 mb 0.00 in0.0 mm 0.00 in0.0 mm 0.00 in0.0 mm
09:45 PM 64.8°F18.2°C 56.7°F13.7°C 75% 0.3 mph S0.5 kmh S 2.2 mph3.5 kmh 30.27 in1025.1 mb 0.00 in0.0 mm 0.00 in0.0 mm 0.00 in0.0 mm
09:50 PM 64.8°F18.2°C 56.7°F13.7°C 75% 0.8 mph SSW1.3 kmh SSW 2.7 mph4.3 kmh 30.27 in1025.1 mb 0.00 in0.0 mm 0.00 in0.0 mm 0.00 in0.0 mm
09:55 PM 64.8°F18.2°C 56.5°F13.6°C 74% 1.2 mph S1.9 kmh S 2.7 mph4.3 kmh 30.27 in1025.1 mb 0.00 in0.0 mm 0.00 in0.0 mm 0.00 in0.0 mm
10:00 PM 64.8°F18.2°C 56.3°F13.5°C 74% 0.9 mph SE1.4 kmh SE 2.2 mph3.5 kmh 30.27 in1025.1 mb 0.00 in0.0 mm 0.00 in0.0 mm 0.00 in0.0 mm
10:05 PM 64.8°F18.2°C 56.3°F13.5°C 74% 1.0 mph S1.6 kmh S 2.2 mph3.5 kmh 30.27 in1025.1 mb 0.00 in0.0 mm 0.00 in0.0 mm 0.00 in0.0 mm
10:10 PM 64.8°F18.2°C 56.3°F13.5°C 74% 0.9 mph S1.4 kmh S 2.2 mph3.5 kmh 30.27 in1025.1 mb 0.00 in0.0 mm 0.00 in0.0 mm 0.00 in0.0 mm
10:15 PM 64.8°F18.2°C 56.3°F13.5°C 74% 0.3 mph W0.5 kmh W 1.7 mph2.7 kmh 30.27 in1025.1 mb 0.00 in0.0 mm 0.00 in0.0 mm 0.00 in0.0 mm
10:20 PM 64.8°F18.2°C 56.5°F13.6°C 74% 0.3 mph S0.5 kmh S 1.7 mph2.7 kmh 30.27 in1025.1 mb 0.00 in0.0 mm 0.00 in0.0 mm 0.00 in0.0 mm
10:25 PM 64.8°F18.2°C 56.7°F13.7°C 75% Calm Calm -- 30.27 in1025.1 mb 0.00 in0.0 mm 0.00 in0.0 mm 0.00 in0.0 mm
10:30 PM 64.8°F18.2°C 56.7°F13.7°C 75% Calm Calm -- 30.27 in1025.1 mb 0.00 in0.0 mm 0.00 in0.0 mm 0.00 in0.0 mm
10:35 PM 64.8°F18.2°C 56.7°F13.7°C 75% 0.1 mph SW0.2 kmh SW 1.1 mph1.8 kmh 30.27 in1025.1 mb 0.00 in0.0 mm 0.00 in0.0 mm 0.00 in0.0 mm
10:40 PM 64.8°F18.2°C 56.7°F13.7°C 75% Calm Calm -- 30.27 in1025.1 mb 0.00 in0.0 mm 0.00 in0.0 mm 0.00 in0.0 mm
10:45 PM 64.8°F18.2°C 56.7°F13.7°C 75% 0.1 mph NW0.2 kmh NW 1.1 mph1.8 kmh 30.27 in1025.1 mb 0.00 in0.0 mm 0.00 in0.0 mm 0.00 in0.0 mm
10:50 PM 64.8°F18.2°C 56.7°F13.7°C 75% 0.3 mph WNW0.5 kmh WNW 2.2 mph3.5 kmh 30.27 in1025.1 mb 0.00 in0.0 mm 0.00 in0.0 mm 0.00 in0.0 mm
10:55 PM 64.8°F18.2°C 56.7°F13.7°C 75% 0.1 mph N0.2 kmh N 1.1 mph1.8 kmh 30.26 in1024.7 mb 0.00 in0.0 mm 0.00 in0.0 mm 0.00 in0.0 mm
11:00 PM 64.8°F18.2°C 56.7°F13.7°C 75% 0.4 mph SW0.6 kmh SW 1.7 mph2.7 kmh 30.26 in1024.7 mb 0.00 in0.0 mm 0.00 in0.0 mm 0.00 in0.0 mm
11:05 PM 64.8°F18.2°C 57.0°F13.9°C 76% 0.2 mph SSW0.3 kmh SSW 1.7 mph2.7 kmh 30.26 in1024.7 mb 0.00 in0.0 mm 0.00 in0.0 mm 0.00 in0.0 mm
11:10 PM 64.8°F18.2°C 57.1°F13.9°C 76% 0.6 mph S1.0 kmh S 2.2 mph3.5 kmh 30.26 in1024.7 mb 0.00 in0.0 mm 0.00 in0.0 mm 0.00 in0.0 mm
11:15 PM 64.8°F18.2°C 57.1°F13.9°C 76% 1.2 mph SSW1.9 kmh SSW 2.7 mph4.3 kmh 30.26 in1024.7 mb 0.00 in0.0 mm 0.00 in0.0 mm 0.00 in0.0 mm
11:20 PM 64.8°F18.2°C 57.1°F13.9°C 76% 0.1 mph N0.2 kmh N 1.1 mph1.8 kmh 30.25 in1024.4 mb 0.00 in0.0 mm 0.00 in0.0 mm 0.00 in0.0 mm
11:25 PM 64.8°F18.2°C 57.1°F13.9°C 76% 0.1 mph S0.2 kmh S 1.1 mph1.8 kmh 30.25 in1024.4 mb 0.00 in0.0 mm 0.00 in0.0 mm 0.00 in0.0 mm
11:30 PM 64.8°F18.2°C 57.1°F13.9°C 76% 0.1 mph SSW0.2 kmh SSW 1.1 mph1.8 kmh 30.25 in1024.4 mb 0.00 in0.0 mm 0.00 in0.0 mm 0.00 in0.0 mm
11:35 PM 64.8°F18.2°C 57.3°F14.1°C 77% Calm Calm -- 30.25 in1024.4 mb 0.00 in0.0 mm 0.00 in0.0 mm 0.00 in0.0 mm
11:40 PM 64.8°F18.2°C 57.4°F14.1°C 77% 0.5 mph SSW0.8 kmh SSW 1.7 mph2.7 kmh 30.25 in1024.4 mb 0.00 in0.0 mm 0.00 in0.0 mm 0.00 in0.0 mm
11:45 PM 64.8°F18.2°C 57.4°F14.1°C 77% 0.7 mph SW1.1 kmh SW 2.7 mph4.3 kmh 30.25 in1024.4 mb 0.00 in0.0 mm 0.00 in0.0 mm 0.00 in0.0 mm
11:50 PM 64.7°F18.2°C 57.4°F14.1°C 77% 1.8 mph SW2.9 kmh SW 3.2 mph5.1 kmh 30.24 in1024.0 mb 0.00 in0.0 mm 0.00 in0.0 mm 0.00 in0.0 mm
11:55 PM 64.6°F18.1°C 57.9°F14.4°C 79% 1.0 mph SW1.6 kmh SW 2.2 mph3.5 kmh 30.24 in1024.0 mb 0.00 in0.0 mm 0.00 in0.0 mm 0.00 in0.0 mm